Time;durP1;ratioP1;P1;durP2;ratioP2;P2;SDS_P1;SDS_P2;PMS_P1;PMS_P2;Temp;Humidity;BMP_temperature;BMP_pressure;BME280_temperature;BME280_humidity;BME280_pressure;Samples;Min_cycle;Max_cycle;Signal;HPM_P1;HPM_P2
2022/11/08 00:15:53;;;;;;;8.70;4.90;;;10.80;99.90;;;;;;21085918;28;20602;-70
2022/11/08 00:25:55;;;;;;;11.57;5.10;;;10.70;99.90;;;;;;21083632;28;20236;-75
2022/11/08 00:35:58;;;;;;;7.73;5.30;;;10.60;99.90;;;;;;21084352;28;20209;-67
2022/11/08 00:46:00;;;;;;;12.97;5.47;;;10.50;99.90;;;;;;21082968;28;20245;-68
2022/11/08 00:56:04;;;;;;;9.17;4.97;;;10.40;99.90;;;;;;21082595;28;20203;-69
2022/11/08 01:06:07;;;;;;;8.33;4.43;;;10.30;99.90;;;;;;21081697;28;20240;-67
2022/11/08 01:16:15;;;;;;;8.83;4.70;;;10.20;99.90;;;;;;21081262;28;20200;-69
2022/11/08 01:26:25;;;;;;;6.63;4.40;;;10.10;99.90;;;;;;21077536;28;20231;-69
2022/11/08 01:36:28;;;;;;;9.13;3.73;;;9.90;99.90;;;;;;21078369;28;20555;-67
2022/11/08 01:46:31;;;;;;;12.23;3.97;;;9.80;99.90;;;;;;21079474;28;20240;-66
2022/11/08 01:56:35;;;;;;;5.80;4.00;;;9.80;99.90;;;;;;21078852;28;20215;-67
2022/11/08 02:06:38;;;;;;;7.17;4.03;;;9.70;99.90;;;;;;21078432;28;20231;-67
2022/11/08 02:16:39;;;;;;;9.30;4.30;;;9.70;99.90;;;;;;21079550;28;20207;-73
2022/11/08 02:26:43;;;;;;;5.17;3.30;;;9.50;99.90;;;;;;21079252;28;20233;-78
2022/11/08 02:36:48;;;;;;;6.07;3.73;;;9.50;99.90;;;;;;21078025;28;20256;-77
2022/11/08 02:46:49;;;;;;;5.93;3.47;;;9.40;99.90;;;;;;21080357;28;20239;-81
2022/11/08 02:56:51;;;;;;;6.70;3.70;;;9.30;99.90;;;;;;21092541;28;20204;-81
2022/11/08 03:06:53;;;;;;;8.97;3.67;;;9.30;99.90;;;;;;21091203;28;20236;-79
2022/11/08 03:16:54;;;;;;;5.17;3.10;;;9.20;99.90;;;;;;21090983;28;20206;-79
2022/11/08 03:26:56;;;;;;;7.50;3.80;;;9.10;99.90;;;;;;21086376;28;20291;-78
2022/11/08 03:36:58;;;;;;;8.57;3.50;;;9.10;99.90;;;;;;21088025;28;20211;-78
2022/11/08 03:47:00;;;;;;;8.90;3.30;;;9.00;99.90;;;;;;21089885;28;20242;-78
2022/11/08 03:57:02;;;;;;;10.30;3.30;;;8.90;99.90;;;;;;21103282;28;20733;-73
2022/11/08 04:07:03;;;;;;;6.40;3.43;;;8.90;99.90;;;;;;21086670;28;20231;-76
2022/11/08 04:17:05;;;;;;;5.83;3.30;;;8.90;99.90;;;;;;21086119;28;20723;-76
2022/11/08 04:27:07;;;;;;;6.63;3.73;;;8.80;99.90;;;;;;21084701;28;20238;-71
2022/11/08 04:37:08;;;;;;;7.93;3.60;;;8.80;99.90;;;;;;21084009;28;20205;-69
2022/11/08 04:47:10;;;;;;;4.93;3.70;;;8.70;99.90;;;;;;21083316;28;20249;-70
2022/11/08 04:57:12;;;;;;;6.43;4.00;;;8.60;99.90;;;;;;21082558;28;20251;-77
2022/11/08 05:07:14;;;;;;;6.97;4.00;;;8.60;99.90;;;;;;21081913;28;20234;-77
2022/11/08 05:17:16;;;;;;;7.57;3.80;;;8.50;99.90;;;;;;21079609;28;20268;-73
2022/11/08 05:27:17;;;;;;;8.13;3.83;;;8.30;99.90;;;;;;21077701;28;20295;-74
2022/11/08 05:37:19;;;;;;;7.77;4.37;;;8.20;99.90;;;;;;21078645;28;20706;-76
2022/11/08 05:47:21;;;;;;;9.03;4.43;;;8.20;99.90;;;;;;21082901;28;20244;-76
2022/11/08 05:57:22;;;;;;;10.60;4.40;;;8.20;99.90;;;;;;21078910;28;20251;-78
2022/11/08 06:07:24;;;;;;;11.17;4.30;;;8.20;99.90;;;;;;21098513;28;20228;-73
2022/11/08 06:17:26;;;;;;;7.63;4.03;;;8.20;99.90;;;;;;21162250;28;20209;-77
2022/11/08 06:27:30;;;;;;;6.13;3.43;;;8.20;99.90;;;;;;21173357;28;20699;-76
2022/11/08 06:37:32;;;;;;;11.47;4.40;;;8.20;99.90;;;;;;21177403;28;20263;-75
2022/11/08 06:47:34;;;;;;;15.67;4.73;;;8.30;99.90;;;;;;21176345;28;20255;-75
2022/11/08 06:57:36;;;;;;;18.13;5.93;;;8.40;99.90;;;;;;21157636;28;20673;-76
2022/11/08 07:07:37;;;;;;;18.57;6.37;;;8.40;99.90;;;;;;21156814;28;20284;-76
2022/11/08 07:17:39;;;;;;;25.30;6.80;;;8.50;99.90;;;;;;21174030;28;20653;-77
2022/11/08 07:27:41;;;;;;;18.33;7.67;;;8.60;99.90;;;;;;21096113;28;20288;-77
2022/11/08 07:37:43;;;;;;;15.00;5.67;;;8.90;99.90;;;;;;21085912;28;20204;-76
2022/11/08 07:47:45;;;;;;;17.83;6.60;;;9.10;99.90;;;;;;21095661;28;20238;-75
2022/11/08 07:57:47;;;;;;;53.77;22.47;;;9.30;99.90;;;;;;21102699;28;20268;-67
2022/11/08 08:07:48;;;;;;;34.77;13.47;;;9.50;99.90;;;;;;21095650;28;20257;-71
2022/11/08 08:17:50;;;;;;;44.50;14.50;;;9.80;99.90;;;;;;21121895;28;20540;-71
2022/11/08 08:27:55;;;;;;;36.73;14.87;;;9.90;99.90;;;;;;21065994;28;20236;-70
2022/11/08 08:37:58;;;;;;;39.27;17.20;;;10.20;99.90;;;;;;21082024;28;20273;-70
2022/11/08 08:48:00;;;;;;;43.60;17.00;;;10.20;99.90;;;;;;21063351;28;20730;-71
2022/11/08 08:58:02;;;;;;;26.97;12.70;;;10.40;99.90;;;;;;21081355;28;20213;-71
2022/11/08 09:08:04;;;;;;;24.87;12.37;;;10.70;99.80;;;;;;21080186;28;20237;-69
2022/11/08 09:18:06;;;;;;;29.97;14.47;;;10.80;99.90;;;;;;21079925;28;20723;-71
2022/11/08 09:28:08;;;;;;;35.40;16.13;;;10.90;99.70;;;;;;21079132;28;20721;-76
2022/11/08 09:38:10;;;;;;;34.03;15.93;;;11.10;99.50;;;;;;21077044;28;20207;-72
2022/11/08 09:48:25;;;;;;;34.50;17.70;;;11.40;99.80;;;;;;21078316;28;20246;-70
2022/11/08 09:58:34;;;;;;;53.97;26.70;;;11.80;99.40;;;;;;21078014;28;20217;-70
2022/11/08 10:09:14;;;;;;;52.07;27.60;;;12.20;99.30;;;;;;21155153;28;20240;-74
2022/11/08 10:19:38;;;;;;;30.40;14.47;;;12.70;99.00;;;;;;21161526;28;20613;-70
2022/11/08 10:29:43;;;;;;;34.33;15.77;;;13.10;98.30;;;;;;21160686;28;20233;-69
2022/11/08 10:39:55;;;;;;;20.37;11.37;;;13.40;97.40;;;;;;21159930;28;20205;-71
2022/11/08 10:49:57;;;;;;;16.90;8.00;;;13.50;97.70;;;;;;21115723;28;20249;-72
2022/11/08 11:00:20;;;;;;;10.87;6.60;;;13.70;97.30;;;;;;21154319;28;20227;-73
2022/11/08 11:10:28;;;;;;;10.33;5.70;;;13.90;97.00;;;;;;21146445;28;20235;-72
2022/11/08 11:20:30;;;;;;;11.43;3.90;;;14.10;96.70;;;;;;21153066;28;20207;-73
2022/11/08 11:30:34;;;;;;;4.97;3.40;;;14.50;96.50;;;;;;21089915;28;20234;-70
2022/11/08 11:40:42;;;;;;;11.20;3.27;;;14.80;96.20;;;;;;21087648;28;20218;-75
2022/11/08 11:50:46;;;;;;;7.47;3.03;;;15.00;95.80;;;;;;21088927;28;20246;-76
2022/11/08 12:01:07;;;;;;;5.33;2.90;;;15.10;95.80;;;;;;21098213;28;20309;-70
2022/11/08 12:11:34;;;;;;;6.70;2.77;;;;;;;;;;21161770;28;20240;-75
2022/11/08 12:21:50;;;;;;;5.57;2.10;;;;;;;;;;21167332;28;20230;-76
2022/11/08 12:31:52;;;;;;;4.20;2.20;;;;;;;;;;21167224;28;20237;-75
2022/11/08 12:42:25;;;;;;;1.97;1.40;;;15.60;95.60;;;;;;21165980;28;20538;-75
2022/11/08 12:53:09;;;;;;;2.20;1.70;;;16.60;92.00;;;;;;21148028;28;20699;-75
2022/11/08 13:03:22;;;;;;;3.97;1.37;;;16.80;90.40;;;;;;21152700;28;20260;-75
2022/11/08 13:13:36;;;;;;;6.17;1.40;;;17.00;86.90;;;;;;21164639;28;20260;-77
2022/11/08 13:23:38;;;;;;;2.23;1.20;;;17.00;84.50;;;;;;21163115;28;20609;-76
2022/11/08 13:33:47;;;;;;;5.13;1.80;;;16.90;81.90;;;;;;21163215;28;20234;-76
2022/11/08 13:43:52;;;;;;;2.53;1.50;;;16.80;82.10;;;;;;21162776;28;20253;-76
2022/11/08 13:54:20;;;;;;;2.90;1.60;;;16.60;83.10;;;;;;21162627;28;20236;-77
2022/11/08 14:04:43;;;;;;;3.47;1.83;;;16.40;84.40;;;;;;21080756;28;20674;-77
2022/11/08 14:14:54;;;;;;;3.93;2.90;;;16.20;85.40;;;;;;21075695;28;20640;-77
2022/11/08 14:25:33;;;;;;;9.67;4.30;;;16.10;86.50;;;;;;21076260;28;20200;-75
2022/11/08 14:35:35;;;;;;;9.43;3.40;;;15.90;88.00;;;;;;21076403;28;20228;-77
2022/11/08 14:45:39;;;;;;;8.23;3.37;;;15.80;90.00;;;;;;21081801;28;20300;-76
2022/11/08 14:55:41;;;;;;;6.10;3.40;;;15.60;90.80;;;;;;21090765;28;20202;-73
2022/11/08 15:05:52;;;;;;;8.77;5.67;;;15.40;91.50;;;;;;21090361;28;20214;-75
2022/11/08 15:16:00;;;;;;;19.80;9.83;;;15.30;92.20;;;;;;21090065;28;20214;-72
2022/11/08 15:26:01;;;;;;;15.53;7.53;;;15.10;92.80;;;;;;21071240;28;20247;-76
2022/11/08 15:36:12;;;;;;;13.20;7.17;;;14.90;93.50;;;;;;21088251;28;20658;-76
2022/11/08 15:46:27;;;;;;;8.10;4.90;;;14.70;94.00;;;;;;21087801;28;20242;-77
2022/11/08 15:56:31;;;;;;;6.17;4.17;;;14.50;94.50;;;;;;21087026;28;20206;-76
2022/11/08 16:06:33;;;;;;;12.87;6.70;;;14.20;94.70;;;;;;21080487;28;20328;-77
2022/11/08 16:16:36;;;;;;;15.13;7.77;;;14.10;95.20;;;;;;21100519;28;20215;-76
2022/11/08 16:26:39;;;;;;;11.33;5.87;;;13.90;95.50;;;;;;21085683;28;20238;-74
2022/11/08 16:36:44;;;;;;;15.10;8.50;;;13.80;95.80;;;;;;21085872;28;20206;-76
2022/11/08 16:46:45;;;;;;;15.73;6.70;;;13.70;95.90;;;;;;21084037;28;20709;-71
2022/11/08 16:56:47;;;;;;;13.40;6.17;;;13.60;96.10;;;;;;21082652;28;20657;-76
2022/11/08 17:06:49;;;;;;;13.53;6.37;;;13.50;96.40;;;;;;21080822;28;20240;-76
2022/11/08 17:16:52;;;;;;;13.33;6.00;;;13.40;96.60;;;;;;21081403;28;20656;-75
2022/11/08 17:26:54;;;;;;;12.30;5.07;;;13.20;96.60;;;;;;21062174;28;20238;-75
2022/11/08 17:36:56;;;;;;;18.50;10.43;;;13.10;96.90;;;;;;21079619;28;20203;-74
2022/11/08 17:46:57;;;;;;;11.80;7.83;;;12.80;97.00;;;;;;21079324;28;20242;-76
2022/11/08 17:56:59;;;;;;;18.23;9.40;;;12.80;97.40;;;;;;21078837;28;20730;-76
2022/11/08 18:07:01;;;;;;;21.73;11.73;;;12.60;97.50;;;;;;21076153;28;20239;-74
2022/11/08 18:17:03;;;;;;;13.20;8.43;;;12.50;97.70;;;;;;21059318;28;20210;-73
2022/11/08 18:27:05;;;;;;;15.17;8.20;;;12.50;97.80;;;;;;21104671;28;20239;-72
2022/11/08 18:37:07;;;;;;;13.57;9.33;;;12.40;98.20;;;;;;21158350;28;20198;-71
2022/11/08 18:47:08;;;;;;;27.20;16.17;;;12.40;98.40;;;;;;21130773;28;20287;-71
2022/11/08 18:57:10;;;;;;;19.90;11.87;;;12.30;98.60;;;;;;21092269;28;20272;-72
2022/11/08 19:07:12;;;;;;;13.60;7.13;;;12.30;99.00;;;;;;21091620;28;20226;-70
2022/11/08 19:17:17;;;;;;;15.73;9.60;;;12.30;98.80;;;;;;21073478;28;20235;-70
2022/11/08 19:27:19;;;;;;;23.23;11.40;;;12.20;98.90;;;;;;21167368;28;20238;-66
2022/11/08 19:37:21;;;;;;;23.27;11.93;;;12.10;98.90;;;;;;21173040;28;20271;-68
2022/11/08 19:47:22;;;;;;;19.80;11.43;;;12.10;99.10;;;;;;21138964;28;20243;-69
2022/11/08 19:57:26;;;;;;;18.97;11.47;;;12.00;99.10;;;;;;21088126;28;20254;-69
2022/11/08 20:07:27;;;;;;;21.30;12.00;;;12.00;99.10;;;;;;21086422;28;20242;-71
2022/11/08 20:17:34;;;;;;;20.50;10.20;;;11.80;99.20;;;;;;21085903;28;20260;-70
2022/11/08 20:27:36;;;;;;;15.67;8.90;;;11.80;99.50;;;;;;21081366;28;20236;-69
2022/11/08 20:37:38;;;;;;;15.33;8.30;;;11.80;99.70;;;;;;21082116;28;20215;-71
2022/11/08 20:47:39;;;;;;;14.03;9.00;;;11.80;99.50;;;;;;21081043;28;20231;-71
2022/11/08 20:57:41;;;;;;;14.53;8.80;;;11.80;99.80;;;;;;21080635;28;20260;-71
2022/11/08 21:07:43;;;;;;;14.83;9.40;;;11.90;99.70;;;;;;21079566;28;20230;-71
2022/11/08 21:18:04;;;;;;;13.80;9.70;;;11.90;99.90;;;;;;21078953;28;20218;-71
2022/11/08 21:28:06;;;;;;;14.60;8.90;;;11.90;99.90;;;;;;21079554;28;20285;-71
2022/11/08 21:38:08;;;;;;;12.87;9.10;;;12.00;99.90;;;;;;21077679;28;20256;-71
2022/11/08 21:48:10;;;;;;;13.40;8.37;;;12.00;99.80;;;;;;21076551;28;20245;-71
2022/11/08 21:58:16;;;;;;;9.83;7.70;;;12.00;99.80;;;;;;21076540;28;20200;-71
2022/11/08 22:08:18;;;;;;;12.07;7.63;;;12.00;99.90;;;;;;21076183;28;20238;-71
2022/11/08 22:18:20;;;;;;;9.97;7.33;;;12.00;99.90;;;;;;21073042;28;20205;-71
2022/11/08 22:28:42;;;;;;;10.07;6.77;;;12.10;99.90;;;;;;21075970;28;20236;-70
2022/11/08 22:38:45;;;;;;;7.53;5.60;;;12.00;99.90;;;;;;21077632;28;20666;-71
2022/11/08 22:48:47;;;;;;;10.40;5.90;;;12.00;99.90;;;;;;21076649;28;20253;-70
2022/11/08 22:58:48;;;;;;;11.23;5.80;;;12.10;99.90;;;;;;21077159;28;20203;-71
2022/11/08 23:08:50;;;;;;;8.67;5.87;;;12.10;99.90;;;;;;21085076;28;20240;-70
2022/11/08 23:44:22;;;;;;;8.63;4.93;;;12.20;99.90;;;;;;21089233;28;20210;-70
2022/11/08 23:49:55;;;;;;;13.90;5.70;;;12.20;99.90;;;;;;21088240;28;20380;-70
2022/11/08 23:59:57;;;;;;;12.67;6.83;;;12.20;99.90;;;;;;21087954;28;20265;-70
